Time;durP1;ratioP1;P1;durP2;ratioP2;P2;SDS_P1;SDS_P2;PMS_P1;PMS_P2;Temp;Humidity;BMP_temperature;BMP_pressure;BME280_temperature;BME280_humidity;BME280_pressure;Samples;Min_cycle;Max_cycle;Signal;HPM_P1;HPM_P2
2023/08/26 00:00:29;;;;;;;41.78;15.93;;;;;;;13.21;69.87;99856.19;5092861;28;20118;-55
2023/08/26 00:02:55;;;;;;;33.35;15.73;;;;;;;13.21;70.25;99849.94;5091675;28;20032;-59
2023/08/26 00:05:20;;;;;;;38.47;15.63;;;;;;;13.17;70.64;99851.22;5092453;28;20038;-57
2023/08/26 00:07:46;;;;;;;39.25;15.82;;;;;;;13.16;70.60;99844.16;5092883;28;20362;-60
2023/08/26 00:10:11;;;;;;;42.08;16.20;;;;;;;12.87;70.89;99800.09;5091439;28;20410;-54
2023/08/26 00:12:38;;;;;;;46.47;15.75;;;;;;;13.14;71.00;99857.75;5075742;28;20048;-57
2023/08/26 00:15:04;;;;;;;36.20;14.85;;;;;;;12.91;71.22;99814.13;5091032;28;20123;-57
2023/08/26 00:17:32;;;;;;;43.90;15.45;;;;;;;13.12;71.36;99848.94;5092026;28;20028;-57
2023/08/26 00:19:58;;;;;;;41.92;15.90;;;;;;;13.06;71.76;99847.69;5091869;28;20332;-58
2023/08/26 00:22:23;;;;;;;37.22;14.38;;;;;;;13.10;71.54;99858.16;5092268;28;20039;-57
2023/08/26 00:24:49;;;;;;;33.50;15.13;;;;;;;13.07;71.54;99857.44;5091462;28;20031;-57
2023/08/26 00:27:14;;;;;;;31.73;13.88;;;;;;;13.07;71.56;99852.06;5092484;28;20377;-59
2023/08/26 00:29:40;;;;;;;32.50;14.27;;;;;;;13.05;71.51;99853.19;5092230;28;20134;-59
2023/08/26 00:32:06;;;;;;;33.30;13.85;;;;;;;13.02;72.04;99856.16;5090849;28;20028;-57
2023/08/26 00:34:31;;;;;;;37.97;14.85;;;;;;;13.01;72.23;99851.75;5092487;28;20074;-55
2023/08/26 00:36:57;;;;;;;33.17;15.02;;;;;;;12.90;72.18;99839.31;5095846;28;20024;-52
2023/08/26 00:39:22;;;;;;;32.15;14.30;;;;;;;12.94;72.45;99846.09;5095792;28;20439;-51
2023/08/26 00:41:48;;;;;;;28.58;13.93;;;;;;;12.95;72.47;99847.78;5095785;28;20040;-61
2023/08/26 00:44:14;;;;;;;36.50;14.80;;;;;;;12.93;72.59;99855.16;5096162;28;20540;-56
2023/08/26 00:46:39;;;;;;;28.30;14.40;;;;;;;12.90;72.44;99850.91;5094611;28;20130;-58
2023/08/26 00:49:07;;;;;;;30.42;13.55;;;;;;;12.90;72.70;99852.75;5095614;28;20032;-56
2023/08/26 00:51:33;;;;;;;32.55;14.50;;;;;;;12.88;72.60;99852.03;5095643;28;20059;-59
2023/08/26 00:53:59;;;;;;;28.90;13.55;;;;;;;12.87;72.89;99850.34;5095559;28;20447;-54
2023/08/26 00:56:24;;;;;;;37.20;14.27;;;;;;;12.87;73.11;99850.34;5094860;28;20031;-57
2023/08/26 00:58:50;;;;;;;34.45;14.13;;;;;;;12.84;73.13;99861.34;5094975;28;20043;-58
2023/08/26 01:01:17;;;;;;;28.88;14.18;;;;;;;12.84;72.75;99864.88;5095759;28;20032;-57
2023/08/26 01:03:42;;;;;;;31.13;14.00;;;;;;;12.77;72.81;99851.13;5095349;28;20031;-55
2023/08/26 01:06:08;;;;;;;29.52;15.18;;;;;;;12.80;72.91;99849.19;5094534;28;20032;-59
2023/08/26 01:08:33;;;;;;;31.85;14.20;;;;;;;12.80;73.29;99865.31;5094499;28;20032;-58
2023/08/26 01:11:40;;;;;;;29.85;14.55;;;;;;;12.83;73.24;99848.91;5094411;28;20050;-58
2023/08/26 01:14:22;;;;;;;30.42;13.32;;;;;;;12.83;72.99;99855.13;5095202;28;20097;-59
2023/08/26 01:16:48;;;;;;;25.13;13.80;;;;;;;12.72;73.24;99850.72;5095552;28;20084;-58
2023/08/26 01:19:39;;;;;;;33.10;13.88;;;;;;;12.81;73.24;99857.09;5094761;28;20107;-57
2023/08/26 01:22:06;;;;;;;23.92;13.52;;;;;;;12.69;72.98;99853.66;5074539;28;20079;-57
2023/08/26 01:24:33;;;;;;;25.88;13.80;;;;;;;12.67;73.19;99844.91;5057085;28;20082;-57
2023/08/26 01:26:58;;;;;;;28.20;13.68;;;;;;;12.38;73.10;99813.44;5094011;28;20036;-57
2023/08/26 01:29:25;;;;;;;24.60;13.63;;;;;;;12.61;73.12;99854.34;5095239;28;20036;-54
2023/08/26 01:32:15;;;;;;;31.70;13.95;;;;;;;12.69;72.99;99859.03;5094876;28;20046;-58
2023/08/26 01:34:46;;;;;;;27.77;12.77;;;;;;;12.61;73.13;99851.66;5094712;28;20036;-57
2023/08/26 01:37:12;;;;;;;25.73;13.68;;;;;;;12.52;73.18;99852.50;5094849;28;20058;-57
2023/08/26 01:39:40;;;;;;;32.30;13.57;;;;;;;12.56;73.41;99863.81;5076465;28;20438;-56
2023/08/26 01:42:07;;;;;;;24.98;13.40;;;;;;;12.52;73.32;99851.63;5076771;28;20122;-59
2023/08/26 01:44:33;;;;;;;24.02;12.57;;;;;;;12.48;73.51;99856.44;5094159;28;20028;-58
2023/08/26 01:46:58;;;;;;;24.83;13.20;;;;;;;12.23;73.41;99820.16;5094339;28;20043;-57
2023/08/26 01:49:24;;;;;;;25.65;12.93;;;;;;;12.44;73.48;99849.66;5094443;28;20047;-58
2023/08/26 01:51:50;;;;;;;23.52;13.65;;;;;;;12.43;73.59;99854.16;5076829;28;20354;-58
2023/08/26 01:54:15;;;;;;;28.38;13.20;;;;;;;12.41;73.53;99853.44;5094042;28;20031;-56
2023/08/26 01:56:41;;;;;;;22.70;13.40;;;;;;;12.39;73.48;99855.41;5094268;28;20028;-59
2023/08/26 01:59:06;;;;;;;31.08;13.75;;;;;;;12.37;73.68;99849.34;5089599;28;20020;-55
2023/08/26 02:01:33;;;;;;;23.92;12.52;;;;;;;12.29;73.39;99841.06;5094064;28;20035;-53
2023/08/26 02:04:00;;;;;;;25.45;13.35;;;;;;;12.33;73.69;99856.78;5094363;28;20038;-55
2023/08/26 02:06:26;;;;;;;24.05;12.98;;;;;;;12.32;73.83;99857.78;5094029;28;20378;-57
2023/08/26 02:08:53;;;;;;;28.25;12.70;;;;;;;12.37;74.04;99862.75;5094193;28;20040;-57
2023/08/26 02:11:19;;;;;;;22.02;13.52;;;;;;;12.33;74.01;99862.16;5091029;28;20056;-59
2023/08/26 02:13:44;;;;;;;28.05;13.23;;;;;;;12.37;73.63;99860.06;5093913;28;20044;-57
2023/08/26 02:16:10;;;;;;;23.65;13.27;;;;;;;12.30;74.08;99843.66;5093989;28;20103;-58
2023/08/26 02:18:35;;;;;;;26.42;13.15;;;;;;;12.35;73.69;99852.13;5093873;28;20107;-57
2023/08/26 02:21:01;;;;;;;25.42;13.25;;;;;;;12.41;73.59;99858.81;5093904;28;20122;-57
2023/08/26 02:23:26;;;;;;;29.20;14.23;;;;;;;12.43;73.80;99854.16;5093541;28;20027;-58
2023/08/26 02:25:52;;;;;;;27.35;13.48;;;;;;;12.48;73.85;99856.44;5094061;28;20469;-54
2023/08/26 02:28:17;;;;;;;28.77;13.32;;;;;;;12.51;73.65;99855.31;5093647;28;20077;-56
2023/08/26 02:30:43;;;;;;;32.58;14.52;;;;;;;12.47;73.73;99850.22;5093148;28;20028;-60
2023/08/26 02:33:08;;;;;;;31.80;14.20;;;;;;;12.58;73.59;99860.00;5093574;28;20491;-59
2023/08/26 02:35:35;;;;;;;27.73;13.30;;;;;;;12.63;73.25;99860.44;5093468;28;20071;-55
2023/08/26 02:38:01;;;;;;;28.40;13.80;;;;;;;12.20;73.26;99773.81;5093536;28;20035;-59
2023/08/26 02:40:26;;;;;;;28.80;14.43;;;;;;;12.75;72.93;99847.75;5092441;28;20370;-59
2023/08/26 02:42:52;;;;;;;26.88;14.48;;;;;;;12.83;72.80;99854.28;5093778;28;20020;-59
2023/08/26 02:45:17;;;;;;;31.25;13.95;;;;;;;12.87;72.15;99844.97;5093026;28;20328;-57
2023/08/26 02:47:43;;;;;;;28.40;14.00;;;;;;;12.98;72.06;99847.50;5092432;28;20071;-57
2023/08/26 02:50:09;;;;;;;26.17;14.35;;;;;;;13.05;71.95;99848.66;5092724;28;20019;-59
2023/08/26 02:52:34;;;;;;;30.27;14.23;;;;;;;13.13;71.77;99857.88;5093286;28;20047;-56
2023/08/26 02:55:00;;;;;;;21.60;12.68;;;;;;;13.17;71.68;99861.97;5092526;28;20358;-60
2023/08/26 02:57:26;;;;;;;23.60;13.43;;;;;;;13.27;71.34;99860.16;5092641;28;20043;-62
2023/08/26 02:59:51;;;;;;;24.88;13.18;;;;;;;13.36;71.16;99858.44;5093477;28;20024;-58
2023/08/26 03:02:19;;;;;;;23.88;13.93;;;;;;;13.44;70.75;99857.75;5093152;28;20153;-58
2023/08/26 03:04:45;;;;;;;26.70;13.55;;;;;;;13.53;70.51;99862.31;5093033;28;20181;-57
2023/08/26 03:07:11;;;;;;;31.02;13.80;;;;;;;13.65;70.49;99857.63;5077824;28;20085;-60
2023/08/26 03:09:37;;;;;;;30.25;13.75;;;;;;;13.72;69.79;99849.81;5092721;28;20028;-58
2023/08/26 03:12:03;;;;;;;26.65;13.48;;;;;;;13.91;69.18;99868.63;5091972;28;20044;-57
2023/08/26 03:14:28;;;;;;;23.23;14.27;;;;;;;14.06;68.74;99865.50;5093099;28;20040;-55
2023/08/26 03:16:54;;;;;;;28.73;13.48;;;;;;;14.20;68.07;99864.16;5093231;28;20454;-59
2023/08/26 03:19:21;;;;;;;28.33;13.63;;;;;;;14.38;67.70;99875.00;5092496;28;20115;-58
2023/08/26 03:21:48;;;;;;;27.95;13.68;;;;;;;14.41;67.03;99841.56;5093058;28;20858;-56
2023/08/26 03:24:19;;;;;;;32.95;13.82;;;;;;;14.80;65.80;99865.63;5092763;28;20112;-59
2023/08/26 03:26:44;;;;;;;31.45;15.23;;;;;;;14.97;65.27;99861.28;5092013;28;20064;-57
2023/08/26 03:29:10;;;;;;;31.20;14.82;;;;;;;15.16;64.59;99872.94;5092460;28;20047;-58
2023/08/26 03:31:35;;;;;;;27.25;13.73;;;;;;;15.34;63.78;99872.97;5092487;28;20427;-58
2023/08/26 03:34:01;;;;;;;26.85;14.20;;;;;;;15.54;62.77;99868.25;5092772;28;20115;-59
2023/08/26 03:36:27;;;;;;;27.52;14.20;;;;;;;15.67;62.20;99842.69;5092471;28;20034;-58
2023/08/26 03:38:53;;;;;;;25.23;13.88;;;;;;;16.27;60.72;99868.94;5092661;28;20060;-55
2023/08/26 03:41:18;;;;;;;24.30;13.43;;;;;;;16.99;58.73;99854.25;5092954;28;20040;-56
2023/08/26 03:43:44;;;;;;;25.30;13.05;;;;;;;17.82;55.81;99851.59;5092809;28;20115;-59
2023/08/26 03:46:09;;;;;;;28.25;13.82;;;;;;;18.74;52.90;99852.25;5092755;28;20100;-56
2023/08/26 03:48:35;;;;;;;24.15;12.77;;;;;;;19.80;49.62;99859.88;5092532;28;20056;-58
2023/08/26 03:51:00;;;;;;;25.45;12.15;;;;;;;21.21;46.05;99852.81;5092208;28;20028;-58
2023/08/26 03:53:27;;;;;;;19.30;11.55;;;;;;;22.56;42.87;99843.03;5092864;28;20070;-59
2023/08/26 03:55:52;;;;;;;19.40;11.63;;;;;;;23.69;39.76;99838.09;5092567;28;20115;-58
2023/08/26 03:58:18;;;;;;;21.45;10.95;;;;;;;24.71;37.56;99845.91;5091575;28;20115;-58
2023/08/26 04:00:44;;;;;;;24.38;10.30;;;;;;;25.14;35.93;99838.97;5092392;28;20118;-57
2023/08/26 04:03:10;;;;;;;20.02;10.80;;;;;;;25.28;35.70;99834.25;5089348;28;20032;-58
2023/08/26 04:05:36;;;;;;;12.55;10.02;;;;;;;25.19;35.79;99843.81;5091671;28;20035;-55
2023/08/26 04:08:02;;;;;;;17.60;10.43;;;;;;;25.10;35.38;99825.97;5074135;28;20362;-57
2023/08/26 04:10:28;;;;;;;21.48;10.30;;;;;;;25.40;35.19;99853.56;5096319;28;20036;-59
2023/08/26 04:13:00;;;;;;;16.95;9.80;;;;;;;26.05;33.57;99854.38;5095610;28;20365;-59
2023/08/26 04:15:26;;;;;;;22.20;10.00;;;;;;;27.04;31.48;99845.25;5096315;28;20040;-58
2023/08/26 04:17:52;;;;;;;18.77;9.90;;;;;;;27.91;30.12;99842.25;5096046;28;20051;-57
2023/08/26 04:20:17;;;;;;;14.95;8.82;;;;;;;28.39;29.47;99825.72;5095931;28;20032;-59
2023/08/26 04:22:43;;;;;;;19.90;9.00;;;;;;;29.05;28.63;99836.41;5095713;28;20024;-57
2023/08/26 04:25:08;;;;;;;13.52;7.93;;;;;;;29.91;26.41;99835.47;5096106;28;20032;-59
2023/08/26 04:27:34;;;;;;;12.32;8.05;;;;;;;30.41;26.13;99837.56;5095906;28;20113;-58
2023/08/26 04:30:00;;;;;;;15.27;8.05;;;;;;;30.85;25.30;99837.59;5095815;28;20066;-58
2023/08/26 04:32:26;;;;;;;13.23;7.43;;;;;;;31.17;24.61;99835.97;5095892;28;20036;-59
2023/08/26 04:34:51;;;;;;;11.75;7.53;;;;;;;31.50;24.46;99834.09;5077914;28;20035;-58
2023/08/26 04:37:20;;;;;;;14.27;7.20;;;;;;;31.62;24.03;99837.53;5095359;28;20468;-57
2023/08/26 04:39:46;;;;;;;12.70;7.70;;;;;;;31.48;23.64;99822.47;5095872;28;20027;-57
2023/08/26 04:42:12;;;;;;;18.90;8.00;;;;;;;31.37;23.84;99827.06;5095763;28;20154;-55
2023/08/26 04:44:38;;;;;;;17.98;7.22;;;;;;;31.28;24.00;99828.66;5095469;28;20510;-57
2023/08/26 04:47:04;;;;;;;17.92;6.40;;;;;;;31.57;22.78;99781.31;5093939;28;20031;-56
2023/08/26 04:49:32;;;;;;;11.82;5.75;;;;;;;32.48;21.66;99807.09;5095837;28;20071;-56
2023/08/26 04:51:58;;;;;;;11.80;5.88;;;;;;;33.56;20.41;99830.66;5095794;28;20466;-55
2023/08/26 04:54:24;;;;;;;10.30;5.63;;;;;;;33.81;20.41;99831.75;5095529;28;20031;-56
2023/08/26 04:56:49;;;;;;;10.43;5.93;;;;;;;33.75;20.22;99827.31;5095276;28;20042;-58
2023/08/26 04:59:15;;;;;;;13.32;5.38;;;;;;;34.22;19.59;99831.69;5095666;28;20114;-60
2023/08/26 05:01:41;;;;;;;9.93;5.85;;;;;;;35.08;18.60;99832.75;5095391;28;20464;-59
2023/08/26 05:04:06;;;;;;;9.73;5.60;;;;;;;35.32;18.26;99821.72;5095260;28;20470;-59
2023/08/26 05:06:32;;;;;;;11.90;5.70;;;;;;;35.10;18.28;99832.47;5095097;28;20032;-56
2023/08/26 05:08:57;;;;;;;14.23;5.47;;;;;;;35.12;18.54;99816.31;5094788;28;20112;-56
2023/08/26 05:11:23;;;;;;;7.85;5.28;;;;;;;35.12;18.22;99813.53;5094863;28;20044;-58
2023/08/26 05:13:48;;;;;;;8.88;4.82;;;;;;;34.81;18.58;99816.47;5094521;28;20482;-58
2023/08/26 05:16:14;;;;;;;8.05;5.50;;;;;;;34.42;19.04;99810.50;5095173;28;20024;-59
2023/08/26 05:18:39;;;;;;;8.48;4.65;;;;;;;33.81;18.96;99814.25;5095071;28;20407;-59
2023/08/26 05:21:05;;;;;;;7.03;4.78;;;;;;;33.01;19.95;99811.69;5094066;28;20129;-60
2023/08/26 05:23:32;;;;;;;7.57;4.50;;;;;;;32.24;20.34;99815.00;5095302;28;20411;-59
2023/08/26 05:25:57;;;;;;;7.18;4.50;;;;;;;31.14;21.53;99775.69;5077308;28;20024;-60
2023/08/26 05:28:23;;;;;;;5.95;4.15;;;;;;;30.29;22.43;99791.56;5094539;28;20042;-57
2023/08/26 05:30:48;;;;;;;8.68;4.45;;;;;;;29.44;23.30;99809.03;5094075;28;20039;-56
2023/08/26 05:33:14;;;;;;;9.63;4.25;;;;;;;28.55;24.77;99808.44;5076636;28;20020;-62
2023/08/26 05:35:39;;;;;;;12.73;4.32;;;;;;;27.56;26.12;99788.88;5094150;28;20044;-61
2023/08/26 05:38:05;;;;;;;8.25;4.55;;;;;;;26.88;26.84;99801.94;5076754;28;20024;-62
2023/08/26 05:40:30;;;;;;;12.18;5.38;;;;;;;26.29;28.14;99807.94;5076941;28;20343;-63
2023/08/26 05:42:56;;;;;;;9.73;4.57;;;;;;;25.65;29.28;99811.66;5094242;28;20097;-63
2023/08/26 05:45:24;;;;;;;12.40;4.45;;;;;;;25.08;30.06;99812.47;5094492;28;20414;-63
2023/08/26 05:47:50;;;;;;;9.70;4.38;;;;;;;24.66;30.83;99816.44;5093988;28;20107;-62
2023/08/26 05:50:15;;;;;;;8.95;4.57;;;;;;;24.29;31.10;99807.97;5094612;28;20071;-62
2023/08/26 05:52:41;;;;;;;9.00;4.53;;;;;;;23.83;32.70;99779.59;5094253;28;20060;-61
2023/08/26 05:55:08;;;;;;;11.43;5.05;;;;;;;23.69;32.77;99810.75;5094373;28;20020;-62
2023/08/26 05:57:33;;;;;;;10.05;4.85;;;;;;;23.50;33.21;99805.06;5094957;28;20458;-61
2023/08/26 05:59:59;;;;;;;15.05;4.75;;;;;;;23.31;33.75;99810.31;5094110;28;20063;-62
2023/08/26 06:02:24;;;;;;;12.60;4.43;;;;;;;23.13;33.80;99810.03;5093587;28;20096;-64
2023/08/26 06:04:50;;;;;;;16.25;4.60;;;;;;;22.84;34.28;99792.94;5075629;28;20465;-64
2023/08/26 06:07:17;;;;;;;8.52;4.80;;;;;;;22.92;34.48;99823.66;5093549;28;20040;-63
2023/08/26 06:09:42;;;;;;;13.13;4.43;;;;;;;22.91;34.64;99808.31;5093117;28;20446;-63
2023/08/26 06:12:08;;;;;;;17.38;4.93;;;;;;;22.73;34.96;99775.28;5076776;28;20118;-62
2023/08/26 06:14:34;;;;;;;9.70;4.68;;;;;;;23.06;34.48;99824.53;5093657;28;20170;-62
2023/08/26 06:16:59;;;;;;;10.38;4.45;;;;;;;23.39;34.01;99805.69;5093107;28;20138;-62
2023/08/26 06:19:25;;;;;;;9.32;4.70;;;;;;;23.82;34.29;99818.94;5093448;28;20020;-63
2023/08/26 06:21:50;;;;;;;13.63;5.05;;;;;;;24.29;33.57;99809.84;5093529;28;20020;-61
2023/08/26 06:24:16;;;;;;;9.95;4.82;;;;;;;25.10;31.92;99796.66;5093294;28;20115;-65
2023/08/26 06:26:43;;;;;;;12.00;5.00;;;;;;;26.55;29.22;99803.19;5092973;28;20032;-63
2023/08/26 06:29:11;;;;;;;5.72;3.97;;;;;;;27.84;27.06;99784.56;5093988;28;20031;-61
2023/08/26 06:31:36;;;;;;;7.63;4.72;;;;;;;28.98;25.75;99794.41;5093557;28;20035;-62
2023/08/26 06:34:02;;;;;;;8.35;4.75;;;;;;;29.48;25.18;99793.66;5093824;28;20028;-63
2023/08/26 06:36:28;;;;;;;13.35;4.80;;;;;;;29.61;25.07;99792.50;5093747;28;20127;-64
2023/08/26 06:38:53;;;;;;;7.70;4.55;;;;;;;29.57;25.13;99790.50;5093014;28;20158;-65
2023/08/26 06:41:19;;;;;;;10.90;4.40;;;;;;;29.27;25.40;99792.47;5093369;28;20374;-62
2023/08/26 06:43:44;;;;;;;10.02;4.40;;;;;;;29.10;25.79;99797.09;5093476;28;20028;-62
2023/08/26 06:46:10;;;;;;;9.73;4.47;;;;;;;29.17;25.49;99795.03;5093097;28;20493;-63
2023/08/26 06:48:36;;;;;;;7.80;4.30;;;;;;;29.20;25.43;99783.53;5073303;28;20101;-62
2023/08/26 06:51:01;;;;;;;10.32;4.38;;;;;;;29.40;24.91;99784.94;5072855;28;20516;-63
2023/08/26 06:53:27;;;;;;;11.20;4.00;;;;;;;29.49;24.84;99758.66;5073008;28;20123;-62
2023/08/26 06:55:53;;;;;;;8.85;4.70;;;;;;;29.55;24.72;99787.16;5073273;28;20029;-62
2023/08/26 06:58:20;;;;;;;15.88;4.47;;;;;;;29.34;25.47;99795.88;5079334;28;20032;-64
2023/08/26 07:00:46;;;;;;;12.15;4.50;;;;;;;29.13;25.91;99791.09;5055034;28;20120;-61
2023/08/26 07:03:12;;;;;;;10.43;4.68;;;;;;;29.22;25.51;99784.94;5072801;28;20043;-62
2023/08/26 07:05:38;;;;;;;12.65;4.22;;;;;;;29.89;24.55;99776.91;5081138;28;20020;-63
2023/08/26 07:08:04;;;;;;;8.77;3.90;;;;;;;30.96;23.65;99787.91;5075747;28;20043;-63
2023/08/26 07:10:30;;;;;;;10.55;4.00;;;;;;;31.65;22.16;99773.34;5093193;28;20071;-61
2023/08/26 07:12:55;;;;;;;27.35;5.30;;;;;;;32.05;21.91;99773.06;5092943;28;20378;-61
2023/08/26 07:15:22;;;;;;;8.65;3.80;;;;;;;32.42;21.19;99787.94;5083977;28;20050;-63
2023/08/26 07:17:48;;;;;;;6.32;3.40;;;;;;;32.46;21.39;99778.00;5075000;28;20051;-62
2023/08/26 07:20:13;;;;;;;8.07;3.25;;;;;;;32.44;21.12;99785.75;5092655;28;20410;-63
2023/08/26 07:22:39;;;;;;;5.47;2.92;;;;;;;32.28;20.56;99746.03;5093344;28;20107;-61
2023/08/26 07:25:05;;;;;;;8.05;3.13;;;;;;;32.33;20.94;99779.34;5092859;28;20132;-62
2023/08/26 07:27:31;;;;;;;7.05;3.05;;;;;;;31.99;20.78;99777.75;5092983;28;20032;-61
2023/08/26 07:29:56;;;;;;;9.95;3.38;;;;;;;31.48;22.28;99781.81;5092733;28;20303;-65
2023/08/26 07:32:22;;;;;;;6.80;3.20;;;;;;;31.16;21.67;99782.59;5092666;28;20392;-62
2023/08/26 07:34:50;;;;;;;4.75;2.90;;;;;;;31.20;22.05;99774.66;5093013;28;20152;-62
2023/08/26 07:37:16;;;;;;;10.18;2.83;;;;;;;30.71;22.44;99779.13;5092773;28;20403;-63
2023/08/26 07:39:41;;;;;;;11.05;3.10;;;;;;;29.84;23.26;99752.00;5092796;28;20044;-63
2023/08/26 07:42:07;;;;;;;3.75;2.40;;;;;;;28.95;23.93;99751.66;5092760;28;20028;-61
2023/08/26 07:44:32;;;;;;;10.93;2.72;;;;;;;28.28;25.54;99780.63;5094896;28;20028;-63
2023/08/26 07:46:58;;;;;;;8.90;2.97;;;;;;;27.59;26.53;99768.28;5097076;28;20353;-60
2023/08/26 07:49:23;;;;;;;5.40;3.03;;;;;;;26.95;27.27;99780.69;5097157;28;20107;-61
2023/08/26 07:51:49;;;;;;;8.88;3.05;;;;;;;26.40;28.14;99785.19;5096431;28;20416;-62
2023/08/26 07:54:14;;;;;;;8.32;3.13;;;;;;;25.86;29.22;99763.81;5096422;28;20071;-62
2023/08/26 07:56:40;;;;;;;12.95;2.85;;;;;;;25.39;29.51;99766.09;5096976;28;20181;-62
2023/08/26 07:59:05;;;;;;;6.72;2.72;;;;;;;24.77;30.49;99729.25;5096384;28;20031;-63
2023/08/26 08:01:31;;;;;;;8.27;2.97;;;;;;;24.50;30.88;99773.97;5095864;28;20024;-62
2023/08/26 08:03:56;;;;;;;5.90;3.10;;;;;;;24.07;31.93;99756.25;5095858;28;20454;-62
2023/08/26 08:06:22;;;;;;;9.85;3.13;;;;;;;23.82;32.08;99761.53;5096436;28;20028;-61
2023/08/26 08:08:47;;;;;;;8.38;2.92;;;;;;;23.59;32.41;99754.63;5095283;28;20024;-62
2023/08/26 08:11:13;;;;;;;5.15;2.42;;;;;;;23.45;32.43;99744.75;5096317;28;20140;-63
2023/08/26 08:13:38;;;;;;;5.38;2.50;;;;;;;23.31;32.74;99744.75;5096612;28;20043;-62
2023/08/26 08:16:04;;;;;;;5.05;2.78;;;;;;;23.25;32.91;99752.91;5096627;28;20024;-62
2023/08/26 08:18:29;;;;;;;4.97;2.80;;;;;;;23.07;33.32;99738.81;5096030;28;20024;-62
2023/08/26 08:20:55;;;;;;;3.72;2.70;;;;;;;22.98;33.50;99742.81;5095571;28;20035;-62
2023/08/26 08:23:20;;;;;;;5.88;2.38;;;;;;;22.88;33.94;99745.09;5096660;28;20048;-61
2023/08/26 08:25:46;;;;;;;6.70;2.67;;;;;;;22.78;33.93;99746.34;5096376;28;20028;-63
2023/08/26 08:28:11;;;;;;;6.10;3.08;;;;;;;22.79;34.40;99734.38;5095231;28;20131;-62
2023/08/26 08:30:38;;;;;;;11.73;3.30;;;;;;;22.78;34.34;99751.78;5096255;28;20028;-62
2023/08/26 08:33:04;;;;;;;8.13;3.13;;;;;;;22.68;34.84;99748.63;5096311;28;20039;-61
2023/08/26 08:35:29;;;;;;;8.43;3.35;;;;;;;22.65;34.92;99746.28;5093427;28;20016;-63
2023/08/26 08:37:55;;;;;;;5.95;3.20;;;;;;;22.62;35.16;99741.25;5095860;28;20024;-61
2023/08/26 08:40:21;;;;;;;7.47;3.40;;;;;;;22.50;35.25;99722.75;5095569;28;20116;-62
2023/08/26 08:42:48;;;;;;;12.75;3.53;;;;;;;22.46;35.95;99726.94;5095911;28;20028;-61
2023/08/26 08:45:13;;;;;;;7.07;3.70;;;;;;;22.48;36.49;99732.19;5095796;28;20032;-62
2023/08/26 08:47:39;;;;;;;10.27;3.42;;;;;;;22.42;36.65;99736.53;5095361;28;20085;-61
2023/08/26 08:50:05;;;;;;;13.07;3.72;;;;;;;22.33;37.13;99735.03;5095809;28;20796;-62
2023/08/26 08:52:32;;;;;;;10.20;3.85;;;;;;;22.22;37.55;99725.53;5095491;28;20028;-61
2023/08/26 08:54:58;;;;;;;15.88;3.67;;;;;;;22.00;38.00;99701.13;5093883;28;20178;-61
2023/08/26 08:57:32;;;;;;;8.38;3.58;;;;;;;22.11;37.93;99718.78;5095543;28;20127;-62
2023/08/26 08:59:58;;;;;;;10.75;3.35;;;;;;;21.92;38.84;99729.38;5095355;28;20081;-62
2023/08/26 09:02:26;;;;;;;9.23;4.03;;;;;;;21.62;39.10;99694.16;5095553;28;20024;-61
2023/08/26 09:04:52;;;;;;;7.43;4.07;;;;;;;21.67;39.50;99723.56;5095115;28;20164;-61
2023/08/26 09:07:19;;;;;;;6.78;3.67;;;;;;;21.59;40.27;99727.25;5095972;28;20151;-64
2023/08/26 09:09:44;;;;;;;6.63;3.92;;;;;;;21.31;40.77;99698.16;5095867;28;20474;-61
2023/08/26 09:12:10;;;;;;;6.03;3.83;;;;;;;21.54;40.79;99729.75;5094418;28;20308;-61
2023/08/26 09:14:35;;;;;;;6.63;3.88;;;;;;;21.60;40.91;99728.94;5095058;28;20149;-63
2023/08/26 09:17:18;;;;;;;5.43;3.63;;;;;;;21.89;40.05;99731.69;5095355;28;20032;-62
2023/08/26 09:20:00;;;;;;;10.18;3.90;;;;;;;21.99;40.11;99736.78;5094535;28;20346;-61
2023/08/26 09:22:26;;;;;;;6.03;3.28;;;;;;;21.71;40.44;99692.16;5094747;28;20099;-62
2023/08/26 09:24:56;;;;;;;9.00;3.70;;;;;;;22.09;40.16;99742.69;5095133;28;20040;-61
2023/08/26 09:27:21;;;;;;;6.05;3.45;;;;;;;22.00;40.51;99733.00;5095217;28;20032;-62
2023/08/26 09:29:47;;;;;;;5.22;3.20;;;;;;;21.89;40.91;99727.06;5095464;28;20499;-63
2023/08/26 09:32:12;;;;;;;8.98;3.20;;;;;;;21.79;41.30;99729.31;5095348;28;20036;-63
2023/08/26 09:34:38;;;;;;;6.47;2.88;;;;;;;21.56;41.48;99700.44;5077194;28;20043;-61
2023/08/26 09:37:07;;;;;;;4.75;2.70;;;;;;;21.73;41.24;99730.13;5094991;28;20024;-62
2023/08/26 09:39:33;;;;;;;6.43;3.53;;;;;;;21.61;41.56;99727.91;5094397;28;20024;-61
2023/08/26 09:41:59;;;;;;;5.43;3.28;;;;;;;21.57;42.00;99728.50;5095136;28;20119;-62
2023/08/26 09:44:26;;;;;;;6.57;2.97;;;;;;;21.28;41.93;99695.84;5094647;28;20039;-63
2023/08/26 09:46:56;;;;;;;5.57;2.80;;;;;;;21.10;42.38;99688.16;5094959;28;20205;-61
2023/08/26 09:49:21;;;;;;;11.05;3.05;;;;;;;21.16;42.69;99721.88;5094699;28;20040;-62
2023/08/26 09:51:50;;;;;;;10.23;3.10;;;;;;;20.94;42.86;99702.84;5094904;28;20039;-63
2023/08/26 09:54:17;;;;;;;8.57;3.30;;;;;;;20.99;43.00;99724.03;5095001;28;20032;-62
2023/08/26 09:56:44;;;;;;;6.97;2.83;;;;;;;20.97;43.45;99723.41;5076980;28;20050;-62
2023/08/26 09:59:11;;;;;;;7.22;3.05;;;;;;;20.96;43.46;99714.38;5094506;28;20377;-62
2023/08/26 10:01:38;;;;;;;6.13;2.95;;;;;;;20.94;43.64;99721.91;5094258;28;20089;-61
2023/08/26 10:04:08;;;;;;;6.60;2.95;;;;;;;20.92;43.81;99723.97;5094748;28;20048;-61
2023/08/26 10:06:55;;;;;;;5.88;3.05;;;;;;;21.04;43.57;99732.47;5094194;28;20035;-61
2023/08/26 10:09:37;;;;;;;4.35;3.05;;;;;;;21.04;43.18;99730.59;5094190;28;20040;-62
2023/08/26 10:12:10;;;;;;;3.72;2.92;;;;;;;20.86;43.86;99738.38;5093681;28;20054;-62
2023/08/26 10:14:38;;;;;;;4.25;3.00;;;;;;;20.72;44.14;99724.56;5093413;28;20044;-62
2023/08/26 10:17:10;;;;;;;5.55;2.88;;;;;;;20.65;44.23;99720.94;5094037;28;20032;-62
2023/08/26 10:19:36;;;;;;;4.35;2.70;;;;;;;20.56;44.12;99716.69;5093517;28;20028;-63
2023/08/26 10:22:04;;;;;;;8.95;3.10;;;;;;;20.47;44.78;99719.50;5093330;28;20159;-63
2023/08/26 10:24:31;;;;;;;4.95;3.00;;;;;;;20.16;45.02;99684.44;5093195;28;20027;-61
2023/08/26 10:26:57;;;;;;;4.38;3.50;;;;;;;20.30;44.97;99723.50;5093104;28;20534;-64
2023/08/26 10:29:23;;;;;;;5.53;2.90;;;;;;;20.13;44.83;99693.78;5093640;28;20108;-61
2023/08/26 10:31:48;;;;;;;4.53;2.78;;;;;;;20.15;45.07;99694.44;5094217;28;20461;-62
2023/08/26 10:34:15;;;;;;;4.57;2.53;;;;;;;20.19;44.89;99703.91;5093814;28;20104;-62
2023/08/26 10:36:45;;;;;;;6.90;2.80;;;;;;;20.15;45.10;99709.94;5093381;28;20060;-64
2023/08/26 10:39:20;;;;;;;6.60;3.15;;;;;;;20.15;45.23;99716.19;5093190;28;20482;-63
2023/08/26 10:42:18;;;;;;;7.88;3.20;;;;;;;20.26;44.69;99703.16;5093567;28;20081;-61
2023/08/26 10:45:16;;;;;;;6.03;3.05;;;;;;;20.26;45.03;99705.88;5091672;28;20044;-62
2023/08/26 10:47:46;;;;;;;5.70;3.35;;;;;;;20.12;45.99;99700.25;5083463;28;20032;-61
2023/08/26 10:50:40;;;;;;;3.72;2.30;;;;;;;20.29;44.90;99706.31;5093612;28;20054;-61
2023/08/26 10:53:21;;;;;;;6.43;2.90;;;;;;;19.96;45.76;99666.00;5090830;28;20511;-62
2023/08/26 10:55:51;;;;;;;6.45;3.30;;;;;;;20.00;46.19;99697.19;5094141;28;20027;-62
2023/08/26 10:58:43;;;;;;;3.45;2.60;;;;;;;20.13;45.56;99704.66;5092540;28;20119;-63
2023/08/26 11:01:10;;;;;;;8.38;3.10;;;;;;;19.93;46.49;99702.53;5093690;28;20044;-61
2023/08/26 11:03:37;;;;;;;5.22;3.13;;;;;;;19.88;47.03;99698.66;5093495;28;20032;-62
2023/08/26 11:06:05;;;;;;;6.40;2.92;;;;;;;19.81;46.77;99693.16;5093628;28;20036;-60
2023/08/26 11:08:31;;;;;;;3.80;2.92;;;;;;;19.83;46.87;99707.38;5093251;28;20024;-63
2023/08/26 11:10:58;;;;;;;6.50;3.05;;;;;;;19.86;46.75;99706.16;5092837;28;20068;-64
2023/08/26 11:13:23;;;;;;;7.15;3.28;;;;;;;19.88;46.83;99704.94;5093089;28;20097;-61
2023/08/26 11:15:51;;;;;;;8.88;3.65;;;;;;;19.87;47.21;99705.97;5093391;28;20028;-62
2023/08/26 11:18:17;;;;;;;8.68;4.05;;;;;;;19.86;47.24;99701.56;5092122;28;20032;-61
2023/08/26 11:20:44;;;;;;;7.22;3.47;;;;;;;19.88;47.05;99702.22;5091600;28;20039;-61
2023/08/26 11:23:10;;;;;;;6.13;3.13;;;;;;;19.80;47.18;99696.91;5092997;28;20067;-62
2023/08/26 11:25:38;;;;;;;7.78;3.03;;;;;;;19.86;47.09;99693.41;5092887;28;20062;-61